createdAt,value
2018-05-09T00:00:45.319Z,23.84
2018-05-09T00:01:45.346Z,23.79
2018-05-09T00:02:45.374Z,23.84
2018-05-09T00:03:45.403Z,23.82
2018-05-09T00:04:45.427Z,23.88
2018-05-09T00:05:45.455Z,23.86
2018-05-09T00:06:45.482Z,23.89
2018-05-09T00:07:45.510Z,23.74
2018-05-09T00:08:45.537Z,23.89
2018-05-09T00:09:45.594Z,23.82
2018-05-09T00:10:45.592Z,23.77
2018-05-09T00:11:45.620Z,23.77
2018-05-09T00:12:45.647Z,23.77
2018-05-09T00:13:45.703Z,23.84
2018-05-09T00:14:45.701Z,23.82
2018-05-09T00:15:45.728Z,23.77
2018-05-09T00:16:45.755Z,23.84
2018-05-09T00:17:45.783Z,23.82
2018-05-09T00:18:45.819Z,23.91
2018-05-09T00:19:45.838Z,23.84
2018-05-09T00:20:45.864Z,23.81
2018-05-09T00:21:45.892Z,23.76
2018-05-09T00:22:45.919Z,23.88
2018-05-09T00:23:45.947Z,23.82
2018-05-09T00:24:45.975Z,23.79
2018-05-09T00:25:46.001Z,23.77
2018-05-09T00:26:46.033Z,23.82
2018-05-09T00:27:46.056Z,23.79
2018-05-09T00:28:46.112Z,23.77
2018-05-09T00:29:46.111Z,23.82
2018-05-09T00:30:46.138Z,23.88
2018-05-09T00:31:46.165Z,23.81
2018-05-09T00:32:46.193Z,23.82
2018-05-09T00:33:46.313Z,23.82
2018-05-09T00:34:46.248Z,23.77
2018-05-09T00:35:46.275Z,23.85
2018-05-09T00:36:46.332Z,23.70
2018-05-09T00:37:46.330Z,23.79
2018-05-09T00:38:46.377Z,23.84
2018-05-09T00:39:46.385Z,23.89
2018-05-09T00:40:46.411Z,23.79
2018-05-09T00:41:46.457Z,23.86
2018-05-09T00:42:46.466Z,23.84
2018-05-09T00:43:46.494Z,23.85
2018-05-09T00:44:46.521Z,23.84
2018-05-09T00:45:46.550Z,23.91
2018-05-09T00:46:46.576Z,23.86
2018-05-09T00:47:46.603Z,23.88
2018-05-09T00:48:46.664Z,23.82
2018-05-09T00:49:46.658Z,23.82
2018-05-09T00:50:46.685Z,23.79
2018-05-09T00:51:46.713Z,23.85
2018-05-09T00:52:46.739Z,23.79
2018-05-09T00:53:46.767Z,23.86
2018-05-09T00:54:46.794Z,23.84
2018-05-09T00:55:46.823Z,23.84
2018-05-09T00:56:46.852Z,23.85
2018-05-09T00:57:46.878Z,23.86
2018-05-09T00:58:46.904Z,23.84
2018-05-09T00:59:46.932Z,23.82
2018-05-09T01:00:46.974Z,23.82
2018-05-09T01:01:46.986Z,23.86
2018-05-09T01:02:47.014Z,23.86
2018-05-09T01:03:47.041Z,23.86
2018-05-09T01:04:47.068Z,23.91
2018-05-09T01:05:47.095Z,23.88
2018-05-09T01:06:47.123Z,23.89
2018-05-09T01:07:47.150Z,23.86
2018-05-09T01:08:47.178Z,23.88
2018-05-09T01:09:47.223Z,23.88
2018-05-09T01:10:47.232Z,23.88
2018-05-09T01:11:47.277Z,23.84
2018-05-09T01:12:47.287Z,23.73
2018-05-09T01:13:47.314Z,23.76
2018-05-09T01:14:47.342Z,23.73
2018-05-09T01:15:47.370Z,23.74
2018-05-09T01:16:47.398Z,23.70
2018-05-09T01:17:47.425Z,23.69
2018-05-09T01:18:47.452Z,23.67
2018-05-09T01:19:47.480Z,23.73
2018-05-09T01:20:47.506Z,23.71
2018-05-09T01:21:47.533Z,23.79
2018-05-09T01:22:47.561Z,23.86
2018-05-09T01:23:47.588Z,23.82
2018-05-09T01:24:47.615Z,23.86
2018-05-09T01:25:47.643Z,23.86
2018-05-09T01:26:47.670Z,23.91
2018-05-09T01:27:47.699Z,23.74
2018-05-09T01:28:47.729Z,23.89
2018-05-09T01:29:47.751Z,23.84
2018-05-09T01:30:47.779Z,23.81
2018-05-09T01:31:47.806Z,23.77
2018-05-09T01:32:47.860Z,23.70
2018-05-09T01:33:47.861Z,23.77
2018-05-09T01:34:47.890Z,23.86
2018-05-09T01:35:47.916Z,23.81
2018-05-09T01:36:47.943Z,23.76
2018-05-09T01:37:47.970Z,23.71
2018-05-09T01:38:47.997Z,23.76
2018-05-09T01:39:48.025Z,23.76
2018-05-09T01:40:48.052Z,23.67
2018-05-09T01:41:48.078Z,23.77
2018-05-09T01:42:48.108Z,23.71
2018-05-09T01:43:48.134Z,23.70
2018-05-09T01:44:48.181Z,23.71
2018-05-09T01:45:48.194Z,23.67
2018-05-09T01:46:48.217Z,23.67
2018-05-09T01:47:48.267Z,23.69
2018-05-09T01:48:48.274Z,23.62
2018-05-09T01:49:48.300Z,23.71
2018-05-09T01:50:48.327Z,23.56
2018-05-09T01:51:48.353Z,23.70
2018-05-09T01:52:48.381Z,23.69
2018-05-09T01:53:48.412Z,23.67
2018-05-09T01:54:48.437Z,23.71
2018-05-09T01:55:48.464Z,23.74
2018-05-09T01:56:48.490Z,23.73
2018-05-09T01:57:48.517Z,23.69
2018-05-09T01:58:48.545Z,23.64
2018-05-09T01:59:48.573Z,23.74
2018-05-09T02:00:48.599Z,23.70
2018-05-09T02:01:48.627Z,23.71
2018-05-09T02:02:48.674Z,23.67
2018-05-09T02:03:48.683Z,23.66
2018-05-09T02:04:48.708Z,23.74
2018-05-09T02:05:48.735Z,23.67
2018-05-09T02:06:48.763Z,23.66
2018-05-09T02:07:48.791Z,23.66
2018-05-09T02:08:48.818Z,23.70
2018-05-09T02:09:48.846Z,23.69
2018-05-09T02:10:48.901Z,23.58
2018-05-09T02:11:48.900Z,23.79
2018-05-09T02:12:48.927Z,23.70
2018-05-09T02:13:48.955Z,23.70
2018-05-09T02:14:48.982Z,23.73
2018-05-09T02:15:49.012Z,23.74
2018-05-09T02:16:49.036Z,23.71
2018-05-09T02:17:49.064Z,23.73
2018-05-09T02:18:49.092Z,23.73
2018-05-09T02:19:49.120Z,23.81
2018-05-09T02:20:49.145Z,23.77
2018-05-09T02:21:49.174Z,23.74
2018-05-09T02:22:49.201Z,23.84
2018-05-09T02:23:49.229Z,23.76
2018-05-09T02:24:49.255Z,23.84
2018-05-09T02:25:49.283Z,23.82
2018-05-09T02:26:49.336Z,23.82
2018-05-09T02:27:49.338Z,23.86
2018-05-09T02:28:49.365Z,23.94
2018-05-09T02:29:49.393Z,23.91
2018-05-09T02:30:49.422Z,23.94
2018-05-09T02:31:49.448Z,23.95
2018-05-09T02:32:49.475Z,23.89
2018-05-09T02:33:49.506Z,24.03
2018-05-09T02:34:49.530Z,24.04
2018-05-09T02:35:49.557Z,24.13
2018-05-09T02:36:49.585Z,24.18
2018-05-09T02:37:49.612Z,24.24
2018-05-09T02:38:49.642Z,24.24
2018-05-09T02:39:49.668Z,24.28
2018-05-09T02:40:49.693Z,24.24
2018-05-09T02:41:49.723Z,24.22
2018-05-09T02:42:49.753Z,24.44
2018-05-09T02:43:49.793Z,24.43
2018-05-09T02:44:49.804Z,24.40
2018-05-09T02:45:49.832Z,24.37
2018-05-09T02:46:49.860Z,24.50
2018-05-09T02:47:49.887Z,24.51
2018-05-09T02:48:49.913Z,24.47
2018-05-09T02:49:49.945Z,24.51
2018-05-09T02:50:49.971Z,24.53
2018-05-09T02:51:50.000Z,24.61
2018-05-09T02:52:50.026Z,24.63
2018-05-09T02:53:50.052Z,24.59
2018-05-09T02:54:50.079Z,24.66
2018-05-09T02:55:50.107Z,24.68
2018-05-09T02:56:50.134Z,24.71
2018-05-09T02:57:50.162Z,24.69
2018-05-09T02:58:50.190Z,24.75
2018-05-09T02:59:50.217Z,24.81
2018-05-09T03:00:50.245Z,24.77
2018-05-09T03:01:50.271Z,24.77
2018-05-09T03:02:50.299Z,24.79
2018-05-09T03:03:50.352Z,24.84
2018-05-09T03:04:50.354Z,24.85
2018-05-09T03:05:50.383Z,24.77
2018-05-09T03:06:50.411Z,24.84
2018-05-09T03:07:50.458Z,24.89
2018-05-09T03:08:50.465Z,24.85
2018-05-09T03:09:50.492Z,24.86
2018-05-09T03:10:50.523Z,24.82
2018-05-09T03:11:50.546Z,24.84
2018-05-09T03:12:50.573Z,24.85
2018-05-09T03:13:50.601Z,24.85
2018-05-09T03:14:50.627Z,24.82
2018-05-09T03:15:50.656Z,24.79
2018-05-09T03:16:50.684Z,24.82
2018-05-09T03:17:50.711Z,24.84
2018-05-09T03:18:50.738Z,24.92
2018-05-09T03:19:50.767Z,24.85
2018-05-09T03:20:50.792Z,24.86
2018-05-09T03:21:50.822Z,24.84
2018-05-09T03:22:50.849Z,24.94
2018-05-09T03:23:50.876Z,24.92
2018-05-09T03:24:50.903Z,24.86
2018-05-09T03:25:50.931Z,24.92
2018-05-09T03:26:50.959Z,24.82
2018-05-09T03:27:50.986Z,24.82
2018-05-09T03:28:51.013Z,24.86
2018-05-09T03:29:51.093Z,24.82
2018-05-09T03:30:51.070Z,24.85
2018-05-09T03:31:51.102Z,24.82
2018-05-09T03:32:51.123Z,24.88
2018-05-09T03:33:51.151Z,24.85
2018-05-09T03:34:51.179Z,24.88
2018-05-09T03:35:51.237Z,24.89
2018-05-09T03:36:51.235Z,24.82
2018-05-09T03:37:51.262Z,24.88
2018-05-09T03:38:51.290Z,24.92
2018-05-09T03:39:51.318Z,24.92
2018-05-09T03:40:51.344Z,24.99
2018-05-09T03:41:51.373Z,24.88
2018-05-09T03:42:51.408Z,25.03
2018-05-09T03:43:51.428Z,24.99
2018-05-09T03:44:51.456Z,24.99
2018-05-09T03:45:51.483Z,24.97
2018-05-09T03:46:51.511Z,24.97
2018-05-09T03:47:51.539Z,24.96
2018-05-09T03:48:51.566Z,25.01
2018-05-09T03:49:51.607Z,24.96
2018-05-09T03:50:51.621Z,24.97
2018-05-09T03:51:51.651Z,25.04
2018-05-09T03:52:51.687Z,25.15
2018-05-09T03:53:51.704Z,25.09
2018-05-09T03:54:51.738Z,25.24
2018-05-09T03:55:51.760Z,25.33
2018-05-09T03:56:51.790Z,25.44
2018-05-09T03:57:51.818Z,25.44
2018-05-09T03:58:51.843Z,25.58
2018-05-09T03:59:51.871Z,25.59
2018-05-09T04:00:51.898Z,25.73
2018-05-09T04:01:51.927Z,25.74
2018-05-09T04:02:51.954Z,25.76
2018-05-09T04:03:51.982Z,25.76
2018-05-09T04:04:52.009Z,25.83
2018-05-09T04:05:52.037Z,25.78
2018-05-09T04:06:52.065Z,25.77
2018-05-09T04:07:52.094Z,25.77
2018-05-09T04:08:52.120Z,25.68
2018-05-09T04:09:52.149Z,25.61
2018-05-09T04:10:52.176Z,25.63
2018-05-09T04:11:52.214Z,25.49
2018-05-09T04:12:52.231Z,25.48
2018-05-09T04:13:52.284Z,25.54
2018-05-09T04:14:52.351Z,25.43
2018-05-09T04:15:52.316Z,25.44
2018-05-09T04:16:52.343Z,25.39
2018-05-09T04:17:52.372Z,25.40
2018-05-09T04:18:52.402Z,25.44
2018-05-09T04:19:52.426Z,25.37
2018-05-09T04:20:52.460Z,25.48
2018-05-09T04:21:52.482Z,25.36
2018-05-09T04:22:52.513Z,25.34
2018-05-09T04:23:52.538Z,25.37
2018-05-09T04:24:52.565Z,25.29
2018-05-09T04:25:52.593Z,25.24
2018-05-09T04:26:52.621Z,25.24
2018-05-09T04:27:52.650Z,25.21
2018-05-09T04:28:52.676Z,25.21
2018-05-09T04:29:52.705Z,25.21
2018-05-09T04:30:52.732Z,25.24
2018-05-09T04:31:52.761Z,25.24
2018-05-09T04:32:52.788Z,25.24
2018-05-09T04:33:52.823Z,25.21
2018-05-09T04:34:52.851Z,25.25
2018-05-09T04:35:52.872Z,25.16
2018-05-09T04:36:52.900Z,25.09
2018-05-09T04:37:52.928Z,25.14
2018-05-09T04:38:52.955Z,25.11
2018-05-09T04:39:52.983Z,25.09
2018-05-09T04:40:53.018Z,25.12
2018-05-09T04:41:53.139Z,25.12
2018-05-09T04:42:53.074Z,25.06
2018-05-09T04:43:53.094Z,25.14
2018-05-09T04:44:53.122Z,25.06
2018-05-09T04:45:53.149Z,25.14
2018-05-09T04:46:53.178Z,25.07
2018-05-09T04:47:53.205Z,25.16
2018-05-09T04:48:53.268Z,25.04
2018-05-09T04:49:53.259Z,25.07
2018-05-09T04:50:53.288Z,25.11
2018-05-09T04:51:53.315Z,25.12
2018-05-09T04:52:53.342Z,25.11
2018-05-09T04:53:53.373Z,25.11
2018-05-09T04:54:53.403Z,25.06
2018-05-09T04:55:53.426Z,25.06
2018-05-09T04:56:53.495Z,25.06
2018-05-09T04:57:53.489Z,25.14
2018-05-09T04:58:53.517Z,25.14
2018-05-09T04:59:53.542Z,25.26
2018-05-09T05:00:53.564Z,25.43
2018-05-09T05:01:53.592Z,25.44
2018-05-09T05:02:53.620Z,25.54
2018-05-09T05:03:53.648Z,25.55
2018-05-09T05:04:53.675Z,25.56
2018-05-09T05:05:53.703Z,25.52
2018-05-09T05:06:53.731Z,25.52
2018-05-09T05:07:53.759Z,25.58
2018-05-09T05:08:53.786Z,25.51
2018-05-09T05:09:53.818Z,25.56
2018-05-09T05:10:53.842Z,25.48
2018-05-09T05:11:53.871Z,25.44
2018-05-09T05:12:53.898Z,25.40
2018-05-09T05:13:53.926Z,25.44
2018-05-09T05:14:53.969Z,25.51
2018-05-09T05:15:53.982Z,25.52
2018-05-09T05:16:54.009Z,25.43
2018-05-09T05:17:54.039Z,25.36
2018-05-09T05:18:54.065Z,25.37
2018-05-09T05:19:54.098Z,25.34
2018-05-09T05:20:54.123Z,25.30
2018-05-09T05:21:54.149Z,25.29
2018-05-09T05:22:54.177Z,25.21
2018-05-09T05:23:54.205Z,25.22
2018-05-09T05:24:54.232Z,25.24
2018-05-09T05:25:54.261Z,25.25
2018-05-09T05:26:54.293Z,25.22
2018-05-09T05:27:54.317Z,25.22
2018-05-09T05:28:54.344Z,25.18
2018-05-09T05:29:54.393Z,25.21
2018-05-09T05:30:54.405Z,25.07
2018-05-09T05:31:54.428Z,25.11
2018-05-09T05:32:54.493Z,25.15
2018-05-09T05:33:54.483Z,25.14
2018-05-09T05:34:54.512Z,24.99
2018-05-09T05:35:54.539Z,25.00
2018-05-09T05:36:54.566Z,25.01
2018-05-09T05:37:54.594Z,25.01
2018-05-09T05:38:54.629Z,25.04
2018-05-09T05:39:54.649Z,25.07
2018-05-09T05:40:54.697Z,24.94
2018-05-09T05:41:54.741Z,24.99
2018-05-09T05:42:54.733Z,24.94
2018-05-09T05:43:54.760Z,25.03
2018-05-09T05:44:54.816Z,24.94
2018-05-09T05:45:54.815Z,25.00
2018-05-09T05:46:54.845Z,25.00
2018-05-09T05:47:54.872Z,24.96
2018-05-09T05:48:54.900Z,24.96
2018-05-09T05:49:54.927Z,25.01
2018-05-09T05:50:54.955Z,24.96
2018-05-09T05:51:54.992Z,25.00
2018-05-09T05:52:55.014Z,25.03
2018-05-09T05:53:55.038Z,24.96
2018-05-09T05:54:55.078Z,25.00
2018-05-09T05:55:55.098Z,25.09
2018-05-09T05:56:55.123Z,25.06
2018-05-09T05:57:55.149Z,25.00
2018-05-09T05:58:55.179Z,25.06
2018-05-09T05:59:55.209Z,25.12
2018-05-09T06:00:55.232Z,25.11
2018-05-09T06:01:55.260Z,25.09
2018-05-09T06:02:55.290Z,25.18
2018-05-09T06:03:55.316Z,25.14
2018-05-09T06:04:55.348Z,25.22
2018-05-09T06:05:55.370Z,25.21
2018-05-09T06:06:55.403Z,25.22
2018-05-09T06:07:55.491Z,25.15
2018-05-09T06:08:55.455Z,25.21
2018-05-09T06:09:55.491Z,25.18
2018-05-09T06:10:55.509Z,25.21
2018-05-09T06:11:55.537Z,25.19
2018-05-09T06:12:55.565Z,25.25
2018-05-09T06:13:55.595Z,25.25
2018-05-09T06:14:55.621Z,25.22
2018-05-09T06:15:55.649Z,25.22
2018-05-09T06:16:55.675Z,25.21
2018-05-09T06:17:55.708Z,25.16
2018-05-09T06:18:55.733Z,25.18
2018-05-09T06:19:55.760Z,25.18
2018-05-09T06:20:55.786Z,25.15
2018-05-09T06:21:55.817Z,25.19
2018-05-09T06:22:55.847Z,25.11
2018-05-09T06:23:55.905Z,25.14
2018-05-09T06:24:55.916Z,25.15
2018-05-09T06:25:55.927Z,25.15
2018-05-09T06:26:55.955Z,25.07
2018-05-09T06:27:55.982Z,25.12
2018-05-09T06:28:56.012Z,25.11
2018-05-09T06:29:56.036Z,25.07
2018-05-09T06:30:56.233Z,25.11
2018-05-09T06:31:56.117Z,25.16
2018-05-09T06:32:56.134Z,25.11
2018-05-09T06:33:56.163Z,25.15
2018-05-09T06:34:56.175Z,25.09
2018-05-09T06:35:56.209Z,25.07
2018-05-09T06:36:56.229Z,25.09
2018-05-09T06:37:56.267Z,25.09
2018-05-09T06:38:56.286Z,25.15
2018-05-09T06:39:56.314Z,25.14
2018-05-09T06:40:56.341Z,25.14
2018-05-09T06:41:56.368Z,25.04
2018-05-09T06:42:56.451Z,25.09
2018-05-09T06:43:56.424Z,25.07
2018-05-09T06:44:56.453Z,25.06
2018-05-09T06:45:56.521Z,25.07
2018-05-09T06:46:56.508Z,25.04
2018-05-09T06:47:56.536Z,25.06
2018-05-09T06:48:56.563Z,25.04
2018-05-09T06:49:56.643Z,25.09
2018-05-09T06:50:56.622Z,25.06
2018-05-09T06:51:56.659Z,25.14
2018-05-09T06:52:56.673Z,25.07
2018-05-09T06:53:56.720Z,25.09
2018-05-09T06:54:56.732Z,25.09
2018-05-09T06:55:56.757Z,25.06
2018-05-09T06:56:56.784Z,25.15
2018-05-09T06:57:56.848Z,25.09
2018-05-09T06:58:56.924Z,25.12
2018-05-09T06:59:56.955Z,25.11
2018-05-09T07:00:56.896Z,25.11
2018-05-09T07:01:56.925Z,25.21
2018-05-09T07:02:56.951Z,25.14
2018-05-09T07:03:56.979Z,25.14
2018-05-09T07:04:57.006Z,25.16
2018-05-09T07:05:57.034Z,25.19
2018-05-09T07:06:57.097Z,25.12
2018-05-09T07:07:57.090Z,25.18
2018-05-09T07:08:57.117Z,25.15
2018-05-09T07:09:57.149Z,25.18
2018-05-09T07:10:57.173Z,25.15
2018-05-09T07:11:57.201Z,25.18
2018-05-09T07:12:57.246Z,25.16
2018-05-09T07:13:57.259Z,25.15
2018-05-09T07:14:57.284Z,25.11
2018-05-09T07:15:57.312Z,25.11
2018-05-09T07:16:57.339Z,25.11
2018-05-09T07:17:57.367Z,25.11
2018-05-09T07:18:57.428Z,25.18
2018-05-09T07:19:57.450Z,25.16
2018-05-09T07:20:57.453Z,25.07
2018-05-09T07:21:57.478Z,25.11
2018-05-09T07:22:57.513Z,25.07
2018-05-09T07:23:57.534Z,25.09
2018-05-09T07:24:57.560Z,25.06
2018-05-09T07:25:57.589Z,25.09
2018-05-09T07:26:57.618Z,25.14
2018-05-09T07:27:57.652Z,25.11
2018-05-09T07:28:57.674Z,25.15
2018-05-09T07:29:57.700Z,24.99
2018-05-09T07:30:57.729Z,25.12
2018-05-09T07:31:57.755Z,25.03
2018-05-09T07:32:57.782Z,25.07
2018-05-09T07:33:57.811Z,25.14
2018-05-09T07:34:57.838Z,25.00
2018-05-09T07:35:57.866Z,25.01
2018-05-09T07:36:57.893Z,24.99
2018-05-09T07:37:57.922Z,25.00
2018-05-09T07:38:57.949Z,25.04
2018-05-09T07:39:57.979Z,24.99
2018-05-09T07:40:58.026Z,25.00
2018-05-09T07:41:58.033Z,24.96
2018-05-09T07:42:58.061Z,25.06
2018-05-09T07:43:58.090Z,24.97
2018-05-09T07:44:58.119Z,24.99
2018-05-09T07:45:58.151Z,24.97
2018-05-09T07:46:58.171Z,25.00
2018-05-09T07:47:58.232Z,24.97
2018-05-09T07:48:58.226Z,25.07
2018-05-09T07:49:58.257Z,25.04
2018-05-09T07:50:59.203Z,25.06
2018-05-09T07:51:58.311Z,25.07
2018-05-09T07:52:58.338Z,25.04
2018-05-09T07:53:58.366Z,25.03
2018-05-09T07:54:58.433Z,25.11
2018-05-09T07:55:58.420Z,25.15
2018-05-09T07:56:58.449Z,25.07
2018-05-09T07:57:58.476Z,25.07
2018-05-09T07:58:59.205Z,25.07
2018-05-09T07:59:58.532Z,25.09
2018-05-09T08:00:58.559Z,25.12
2018-05-09T08:01:58.588Z,25.11
2018-05-09T08:02:58.615Z,25.11
2018-05-09T08:03:58.643Z,25.12
2018-05-09T08:04:58.673Z,25.16
2018-05-09T08:05:58.766Z,25.12
2018-05-09T08:06:58.727Z,25.07
2018-05-09T08:07:58.760Z,25.11
2018-05-09T08:08:58.780Z,25.11
2018-05-09T08:09:58.809Z,25.12
2018-05-09T08:10:58.840Z,25.16
2018-05-09T08:11:58.867Z,25.15
2018-05-09T08:12:59.713Z,25.14
2018-05-09T08:13:58.920Z,25.16
2018-05-09T08:14:58.948Z,25.11
2018-05-09T08:15:58.976Z,25.12
2018-05-09T08:16:59.003Z,25.11
2018-05-09T08:17:59.040Z,25.07
2018-05-09T08:18:59.059Z,25.16
2018-05-09T08:19:59.117Z,25.12
2018-05-09T08:20:59.118Z,25.12
2018-05-09T08:21:59.142Z,25.15
2018-05-09T08:22:59.170Z,25.09
2018-05-09T08:23:59.199Z,25.12
2018-05-09T08:24:59.224Z,25.11
2018-05-09T08:25:59.252Z,25.12
2018-05-09T08:26:59.280Z,25.18
2018-05-09T08:27:59.309Z,25.11
2018-05-09T08:28:59.335Z,25.12
2018-05-09T08:29:59.363Z,25.11
2018-05-09T08:30:59.392Z,25.11
2018-05-09T08:31:59.453Z,25.14
2018-05-09T08:32:59.447Z,25.12
2018-05-09T08:33:59.477Z,25.09
2018-05-09T08:34:59.506Z,25.07
2018-05-09T08:35:59.532Z,25.11
2018-05-09T08:36:59.558Z,25.11
2018-05-09T08:37:59.586Z,25.14
2018-05-09T08:38:59.616Z,25.14
2018-05-09T08:39:59.641Z,25.11
2018-05-09T08:40:59.669Z,25.15
2018-05-09T08:41:59.697Z,25.06
2018-05-09T08:42:59.724Z,25.04
2018-05-09T08:43:59.774Z,25.03
2018-05-09T08:44:59.780Z,25.09
2018-05-09T08:45:59.810Z,25.01
2018-05-09T08:46:59.835Z,25.01
2018-05-09T08:47:59.865Z,25.06
2018-05-09T08:48:59.890Z,25.01
2018-05-09T08:49:59.919Z,25.01
2018-05-09T08:50:59.965Z,25.15
2018-05-09T08:51:59.979Z,25.04
2018-05-09T08:53:00.003Z,25.07
2018-05-09T08:54:00.030Z,25.03
2018-05-09T08:55:00.059Z,24.99
2018-05-09T08:56:00.087Z,25.01
2018-05-09T08:57:00.112Z,25.01
2018-05-09T08:58:00.140Z,25.11
2018-05-09T08:59:00.168Z,25.09
2018-05-09T09:00:00.217Z,25.06
2018-05-09T09:01:00.224Z,25.06
2018-05-09T09:02:00.251Z,25.01
2018-05-09T09:03:00.279Z,24.99
2018-05-09T09:04:00.309Z,25.06
2018-05-09T09:05:00.334Z,24.97
2018-05-09T09:06:00.361Z,25.06
2018-05-09T09:07:00.397Z,25.07
2018-05-09T09:08:00.418Z,25.03
2018-05-09T09:09:00.445Z,25.11
2018-05-09T09:10:00.472Z,25.04
2018-05-09T09:11:00.500Z,25.14
2018-05-09T09:12:00.528Z,25.03
2018-05-09T09:13:00.590Z,25.04
2018-05-09T09:14:00.586Z,25.15
2018-05-09T09:15:00.615Z,25.09
2018-05-09T09:16:00.640Z,25.11
2018-05-09T09:17:00.690Z,25.14
2018-05-09T09:18:00.695Z,25.09
2018-05-09T09:19:00.722Z,25.11
2018-05-09T09:20:00.751Z,25.11
2018-05-09T09:21:00.809Z,25.12
2018-05-09T09:22:00.841Z,25.09
2018-05-09T09:23:00.833Z,25.12
2018-05-09T09:24:00.862Z,25.14
2018-05-09T09:25:00.888Z,25.11
2018-05-09T09:26:00.918Z,25.09
2018-05-09T09:27:00.952Z,25.15
2018-05-09T09:28:00.975Z,25.15
2018-05-09T09:29:00.999Z,25.15
2018-05-09T09:30:01.027Z,25.14
2018-05-09T09:31:01.057Z,25.19
2018-05-09T09:32:01.090Z,25.19
2018-05-09T09:33:01.130Z,25.14
2018-05-09T09:34:01.137Z,25.11
2018-05-09T09:35:01.166Z,25.04
2018-05-09T09:36:01.205Z,25.06
2018-05-09T09:37:01.221Z,25.15
2018-05-09T09:38:01.249Z,25.11
2018-05-09T09:39:01.277Z,25.06
2018-05-09T09:40:01.304Z,24.97
2018-05-09T09:41:01.336Z,25.00
2018-05-09T09:42:01.416Z,25.04
2018-05-09T09:43:01.396Z,24.97
2018-05-09T09:44:01.433Z,25.01
2018-05-09T09:45:01.449Z,25.03
2018-05-09T09:46:01.476Z,25.00
2018-05-09T09:47:01.500Z,25.04
2018-05-09T09:48:01.526Z,24.96
2018-05-09T09:49:01.574Z,25.00
2018-05-09T09:50:01.582Z,24.93
2018-05-09T09:51:01.610Z,25.04
2018-05-09T09:52:01.637Z,25.00
2018-05-09T09:53:01.686Z,25.01
2018-05-09T09:54:01.692Z,24.96
2018-05-09T09:55:01.720Z,24.97
2018-05-09T09:56:01.750Z,24.96
2018-05-09T09:57:01.779Z,24.92
2018-05-09T09:58:01.807Z,24.89
2018-05-09T09:59:01.834Z,25.01
2018-05-09T10:00:01.870Z,24.99
2018-05-09T10:01:01.885Z,24.92
2018-05-09T10:02:01.913Z,24.96
2018-05-09T10:03:01.972Z,24.99
2018-05-09T10:04:01.979Z,24.88
2018-05-09T10:05:01.997Z,24.94
2018-05-09T10:06:02.027Z,24.99
2018-05-09T10:07:02.053Z,24.86
2018-05-09T10:08:02.165Z,24.89
2018-05-09T10:09:02.108Z,24.89
2018-05-09T10:10:02.135Z,24.85
2018-05-09T10:11:02.172Z,24.86
2018-05-09T10:12:02.198Z,24.92
2018-05-09T10:13:02.221Z,24.89
2018-05-09T10:14:02.267Z,24.85
2018-05-09T10:15:02.273Z,24.85
2018-05-09T10:16:02.356Z,24.89
2018-05-09T10:17:02.339Z,24.94
2018-05-09T10:18:02.375Z,24.92
2018-05-09T10:19:02.390Z,24.89
2018-05-09T10:20:02.424Z,24.92
2018-05-09T10:21:02.438Z,24.93
2018-05-09T10:22:02.471Z,24.89
2018-05-09T10:23:02.497Z,24.86
2018-05-09T10:24:02.527Z,24.92
2018-05-09T10:25:02.563Z,24.92
2018-05-09T10:26:02.577Z,24.88
2018-05-09T10:27:02.604Z,24.92
2018-05-09T10:28:02.633Z,25.00
2018-05-09T10:29:02.693Z,24.97
2018-05-09T10:30:02.687Z,24.85
2018-05-09T10:31:02.715Z,24.94
2018-05-09T10:32:02.771Z,24.88
2018-05-09T10:33:02.802Z,24.96
2018-05-09T10:34:02.827Z,24.96
2018-05-09T10:35:02.853Z,24.88
2018-05-09T10:36:02.854Z,24.93
2018-05-09T10:37:02.889Z,24.99
2018-05-09T10:38:02.909Z,24.89
2018-05-09T10:39:02.936Z,24.89
2018-05-09T10:40:02.964Z,24.89
2018-05-09T10:41:02.991Z,24.89
2018-05-09T10:42:03.024Z,24.86
2018-05-09T10:43:03.077Z,24.86
2018-05-09T10:44:03.075Z,24.89
2018-05-09T10:45:03.104Z,24.85
2018-05-09T10:46:03.149Z,24.86
2018-05-09T10:47:03.162Z,24.86
2018-05-09T10:48:03.221Z,24.94
2018-05-09T10:49:03.212Z,24.92
2018-05-09T10:50:03.240Z,24.99
2018-05-09T10:51:03.270Z,24.85
2018-05-09T10:52:03.295Z,24.84
2018-05-09T10:53:03.323Z,24.94
2018-05-09T10:54:03.352Z,24.89
2018-05-09T10:55:03.406Z,24.84
2018-05-09T10:56:03.406Z,24.93
2018-05-09T10:57:03.437Z,24.89
2018-05-09T10:58:03.462Z,24.89
2018-05-09T10:59:03.491Z,24.85
2018-05-09T11:00:03.517Z,24.88
2018-05-09T11:01:03.547Z,24.88
2018-05-09T11:02:03.598Z,24.89
2018-05-09T11:03:03.603Z,24.85
2018-05-09T11:04:03.644Z,24.93
2018-05-09T11:05:03.724Z,24.89
2018-05-09T11:06:03.681Z,24.85
2018-05-09T11:07:03.709Z,24.85
2018-05-09T11:08:03.738Z,24.99
2018-05-09T11:09:03.763Z,24.85
2018-05-09T11:10:03.793Z,24.92
2018-05-09T11:11:03.821Z,24.84
2018-05-09T11:12:03.860Z,24.85
2018-05-09T11:13:03.869Z,24.97
2018-05-09T11:14:03.937Z,24.92
2018-05-09T11:15:03.929Z,24.82
2018-05-09T11:19:39.581Z,24.74
2018-05-09T11:20:39.530Z,24.77
2018-05-09T11:22:46.345Z,24.77
2018-05-09T11:23:46.056Z,24.75
2018-05-09T11:26:05.347Z,24.66
2018-05-09T11:27:05.346Z,24.75
2018-05-09T11:28:58.281Z,24.79
2018-05-09T11:29:58.260Z,24.84
2018-05-09T11:31:51.174Z,24.78
2018-05-09T11:32:51.174Z,24.75
2018-05-09T11:34:44.234Z,24.75
2018-05-09T11:35:44.089Z,24.75
2018-05-09T11:37:36.984Z,24.77
2018-05-09T11:38:37.003Z,24.86
2018-05-09T11:40:29.923Z,24.77
2018-05-09T11:41:29.918Z,24.89
2018-05-09T11:43:23.682Z,24.79
2018-05-09T11:44:23.682Z,24.86
2018-05-09T11:46:31.263Z,24.77
2018-05-09T11:47:31.056Z,24.85
2018-05-09T11:49:23.971Z,24.86
2018-05-09T11:50:23.974Z,24.85
2018-05-09T11:52:16.886Z,24.82
2018-05-09T11:53:17.006Z,24.84
2018-05-09T11:55:36.177Z,24.82
2018-05-09T11:56:36.182Z,24.79
2018-05-09T11:58:29.074Z,24.78
2018-05-09T11:59:29.092Z,24.82
2018-05-09T12:01:21.993Z,24.81
2018-05-09T12:02:22.029Z,24.79
2018-05-09T12:04:14.909Z,24.81
2018-05-09T12:05:14.924Z,24.81
2018-05-09T12:07:07.839Z,24.77
2018-05-09T12:08:07.839Z,24.82
2018-05-09T12:09:07.865Z,24.78
2018-05-09T12:10:07.893Z,24.79
2018-05-09T12:11:07.948Z,24.79
2018-05-09T12:12:07.948Z,24.78
2018-05-09T12:13:07.980Z,24.75
2018-05-09T12:14:08.003Z,24.82
2018-05-09T12:15:08.031Z,24.78
2018-05-09T12:16:08.061Z,24.78
2018-05-09T12:17:08.087Z,24.81
2018-05-09T12:18:08.113Z,24.77
2018-05-09T12:19:08.148Z,24.77
2018-05-09T12:20:08.189Z,24.81
2018-05-09T12:21:08.197Z,24.82
2018-05-09T12:22:08.225Z,24.77
2018-05-09T12:23:08.259Z,24.77
2018-05-09T12:24:08.283Z,24.78
2018-05-09T12:25:08.308Z,24.78
2018-05-09T12:26:08.334Z,24.78
2018-05-09T12:27:08.362Z,24.86
2018-05-09T12:28:08.390Z,24.86
2018-05-09T12:29:08.417Z,24.77
2018-05-09T12:30:08.444Z,24.79
2018-05-09T12:31:08.473Z,24.78
2018-05-09T12:32:08.500Z,24.85
2018-05-09T12:33:08.528Z,24.82
2018-05-09T12:34:08.555Z,24.77
2018-05-09T12:35:08.585Z,24.82
2018-05-09T12:36:08.610Z,24.81
2018-05-09T12:37:08.639Z,24.84
2018-05-09T12:38:08.665Z,24.89
2018-05-09T12:39:08.692Z,24.82
2018-05-09T12:40:08.721Z,24.85
2018-05-09T12:41:08.748Z,24.82
2018-05-09T12:42:08.776Z,24.78
2018-05-09T12:43:08.817Z,24.88
2018-05-09T12:44:08.834Z,24.75
2018-05-09T12:45:08.859Z,24.82
2018-05-09T12:46:08.887Z,24.85
2018-05-09T12:47:08.913Z,24.75
2018-05-09T12:48:08.941Z,24.85
2018-05-09T12:49:08.968Z,24.77
2018-05-09T12:50:08.998Z,24.88
2018-05-09T12:51:09.067Z,24.71
2018-05-09T12:52:09.051Z,24.68
2018-05-09T12:53:09.105Z,24.77
2018-05-09T12:54:09.105Z,24.77
2018-05-09T12:55:09.157Z,24.78
2018-05-09T12:56:09.163Z,24.85
2018-05-09T12:57:09.189Z,24.78
2018-05-09T12:58:09.216Z,24.78
2018-05-09T12:59:09.245Z,24.68
2018-05-09T13:00:09.284Z,24.78
2018-05-09T13:01:09.299Z,24.75
2018-05-09T13:02:09.327Z,24.71
2018-05-09T13:03:09.354Z,24.79
2018-05-09T13:04:09.383Z,24.71
2018-05-09T13:05:09.413Z,24.75
2018-05-09T13:06:09.438Z,24.75
2018-05-09T13:07:09.528Z,24.74
2018-05-09T13:08:09.495Z,24.78
2018-05-09T13:09:09.520Z,24.78
2018-05-09T13:10:09.547Z,24.77
2018-05-09T13:11:09.576Z,24.79
2018-05-09T13:12:09.603Z,24.77